Time;durP1;ratioP1;P1;durP2;ratioP2;P2;SDS_P1;SDS_P2;PMS_P1;PMS_P2;Temp;Humidity;BMP_temperature;BMP_pressure;BME280_temperature;BME280_humidity;BME280_pressure;Samples;Min_cycle;Max_cycle;Signal;HPM_P1;HPM_P2
2022/02/18 00:00:25;;;;;;;12.00;3.22;;;5.00;99.90;;;;;;5113456;27;20418;-52
2022/02/18 00:02:50;;;;;;;16.73;3.20;;;5.00;99.90;;;;;;5112030;28;20104;-49
2022/02/18 00:05:16;;;;;;;10.65;2.95;;;5.00;99.90;;;;;;5097250;27;20108;-53
2022/02/18 00:07:42;;;;;;;14.93;2.92;;;5.10;99.90;;;;;;5132870;27;20027;-52
2022/02/18 00:10:08;;;;;;;13.60;2.95;;;5.10;99.90;;;;;;5113949;27;20038;-56
2022/02/18 00:12:33;;;;;;;16.75;3.60;;;5.10;99.90;;;;;;5132363;27;20027;-53
2022/02/18 00:14:59;;;;;;;11.73;2.55;;;5.10;99.90;;;;;;5112240;27;20367;-52
2022/02/18 00:17:24;;;;;;;14.45;3.15;;;5.10;99.90;;;;;;5112068;28;20593;-54
2022/02/18 00:19:50;;;;;;;10.95;3.38;;;5.10;99.90;;;;;;5093804;27;20028;-55
2022/02/18 00:22:16;;;;;;;15.20;3.13;;;5.00;99.90;;;;;;5112110;28;20032;-52
2022/02/18 00:24:41;;;;;;;12.70;3.05;;;5.00;99.90;;;;;;5093462;28;20053;-55
2022/02/18 00:27:07;;;;;;;16.00;4.20;;;5.00;99.90;;;;;;5131589;27;20051;-51
2022/02/18 00:29:32;;;;;;;14.13;3.35;;;5.00;99.90;;;;;;5132152;27;20502;-54
2022/02/18 00:31:58;;;;;;;18.48;3.92;;;5.00;99.90;;;;;;5130595;27;20049;-56
2022/02/18 00:34:24;;;;;;;21.52;3.63;;;5.00;99.90;;;;;;5121011;27;20106;-52
2022/02/18 00:36:49;;;;;;;17.92;3.55;;;5.00;99.90;;;;;;5131894;27;20126;-54
2022/02/18 00:39:15;;;;;;;15.25;3.58;;;5.10;99.90;;;;;;5132028;27;20148;-53
2022/02/18 00:41:41;;;;;;;24.67;4.40;;;5.10;99.90;;;;;;5115885;27;20548;-53
2022/02/18 00:44:07;;;;;;;12.85;3.70;;;5.00;99.90;;;;;;5111310;28;20073;-55
2022/02/18 00:46:33;;;;;;;23.58;4.45;;;5.00;99.90;;;;;;5114315;27;20035;-55
2022/02/18 00:48:58;;;;;;;18.77;3.75;;;5.00;99.90;;;;;;5111558;28;20487;-55
2022/02/18 00:51:24;;;;;;;14.85;3.03;;;5.10;99.90;;;;;;5111480;28;20107;-52
2022/02/18 00:53:50;;;;;;;16.80;3.38;;;5.00;99.90;;;;;;5117807;27;20023;-53
2022/02/18 00:56:16;;;;;;;13.60;2.95;;;5.10;99.90;;;;;;5131293;27;20023;-53
2022/02/18 00:58:42;;;;;;;13.15;3.05;;;5.00;99.90;;;;;;5131892;27;20256;-52
2022/02/18 01:01:08;;;;;;;9.52;2.90;;;5.10;99.90;;;;;;5131169;27;20031;-56
2022/02/18 01:03:34;;;;;;;16.10;4.10;;;5.00;99.90;;;;;;5130639;27;20015;-54
2022/02/18 01:06:00;;;;;;;18.73;4.70;;;5.10;99.90;;;;;;5117437;27;20024;-54
2022/02/18 01:08:26;;;;;;;15.90;3.17;;;5.00;99.90;;;;;;5112018;27;20024;-54
2022/02/18 01:10:53;;;;;;;13.15;3.17;;;5.00;99.90;;;;;;5119033;27;20031;-52
2022/02/18 01:13:19;;;;;;;20.67;3.95;;;5.00;99.90;;;;;;5111014;28;20599;-53
2022/02/18 01:15:44;;;;;;;18.65;4.18;;;5.00;99.90;;;;;;5110849;27;20574;-51
2022/02/18 01:18:10;;;;;;;21.42;4.50;;;4.90;99.90;;;;;;5111050;28;20038;-49
2022/02/18 01:20:36;;;;;;;19.40;3.90;;;4.90;99.90;;;;;;5112177;27;20073;-52
2022/02/18 01:23:02;;;;;;;19.90;3.45;;;4.80;99.90;;;;;;5110692;28;20493;-54
2022/02/18 01:25:27;;;;;;;20.52;3.38;;;4.80;99.90;;;;;;5110511;27;20455;-54
2022/02/18 01:27:55;;;;;;;17.05;3.55;;;4.80;99.90;;;;;;5110988;28;20024;-56
2022/02/18 01:30:23;;;;;;;15.30;3.25;;;4.80;99.90;;;;;;5117631;27;20031;-53
2022/02/18 01:32:49;;;;;;;18.95;3.67;;;4.80;99.90;;;;;;5131059;27;20406;-52
2022/02/18 01:35:17;;;;;;;15.20;3.35;;;4.70;99.90;;;;;;5130701;27;20027;-50
2022/02/18 01:37:46;;;;;;;12.93;2.75;;;4.70;99.90;;;;;;5131293;27;20019;-56
2022/02/18 01:40:14;;;;;;;15.48;3.33;;;4.70;99.90;;;;;;5124624;27;20354;-54
2022/02/18 01:42:41;;;;;;;19.80;4.05;;;4.60;99.90;;;;;;5109972;28;20035;-56
2022/02/18 01:45:07;;;;;;;12.23;2.50;;;4.50;99.90;;;;;;5110459;28;20128;-51
2022/02/18 01:47:33;;;;;;;10.70;2.85;;;4.50;99.90;;;;;;5110508;28;20024;-54
2022/02/18 01:49:59;;;;;;;13.88;3.83;;;4.40;99.90;;;;;;5114576;27;20387;-57
2022/02/18 01:52:31;;;;;;;16.20;2.80;;;4.40;99.90;;;;;;5130448;27;20025;-55
2022/02/18 01:54:57;;;;;;;8.13;2.03;;;4.40;99.90;;;;;;5125466;27;20028;-55
2022/02/18 01:57:24;;;;;;;13.65;2.80;;;4.40;99.90;;;;;;5110318;28;20441;-55
2022/02/18 01:59:50;;;;;;;16.60;3.90;;;4.40;99.90;;;;;;5092790;27;20557;-50
2022/02/18 02:02:16;;;;;;;15.68;3.30;;;4.30;99.90;;;;;;5128180;27;20110;-52
2022/02/18 02:04:44;;;;;;;14.57;2.85;;;4.30;99.90;;;;;;5129002;27;20051;-51
2022/02/18 02:07:10;;;;;;;18.60;3.83;;;4.20;99.90;;;;;;5130712;27;20072;-57
2022/02/18 02:09:36;;;;;;;14.23;3.67;;;4.20;99.90;;;;;;5128426;27;20027;-50
2022/02/18 02:12:04;;;;;;;15.18;2.90;;;4.10;99.90;;;;;;5129402;27;20379;-53
2022/02/18 02:14:30;;;;;;;18.63;2.85;;;4.10;99.90;;;;;;5129655;27;20034;-53
2022/02/18 02:16:56;;;;;;;10.88;2.55;;;4.00;99.90;;;;;;5130607;27;20431;-53
2022/02/18 02:19:22;;;;;;;9.43;3.60;;;4.00;99.90;;;;;;5111776;27;20159;-52
2022/02/18 02:21:53;;;;;;;12.15;2.63;;;3.90;99.90;;;;;;5129989;27;20019;-53
2022/02/18 02:24:19;;;;;;;12.85;3.55;;;3.90;99.90;;;;;;5111978;27;20518;-54
2022/02/18 02:26:45;;;;;;;12.15;2.22;;;3.80;99.90;;;;;;5130404;27;20019;-49
2022/02/18 02:29:11;;;;;;;11.10;2.47;;;3.80;99.90;;;;;;5130480;28;20034;-51
2022/02/18 02:31:37;;;;;;;13.82;2.85;;;3.70;99.90;;;;;;5111523;28;20632;-50
2022/02/18 02:34:04;;;;;;;15.73;2.75;;;3.70;99.90;;;;;;5109771;28;20039;-54
2022/02/18 02:36:30;;;;;;;14.02;2.90;;;3.70;99.90;;;;;;5109589;28;20128;-53
2022/02/18 02:38:56;;;;;;;11.73;2.80;;;3.70;99.90;;;;;;5109509;28;20102;-55
2022/02/18 02:41:22;;;;;;;13.82;3.08;;;3.60;99.90;;;;;;5107442;28;20027;-50
2022/02/18 02:43:49;;;;;;;8.32;2.30;;;3.60;99.90;;;;;;5129986;28;20098;-56
2022/02/18 02:46:15;;;;;;;12.63;3.03;;;3.50;99.90;;;;;;5113156;28;20090;-51
2022/02/18 02:48:41;;;;;;;12.45;3.42;;;3.50;99.90;;;;;;5109627;28;20049;-52
2022/02/18 02:51:07;;;;;;;14.35;3.13;;;3.50;99.90;;;;;;5124001;28;20392;-54
2022/02/18 02:53:33;;;;;;;12.93;2.58;;;3.50;99.90;;;;;;5130811;27;20563;-50
2022/02/18 02:55:58;;;;;;;8.27;2.58;;;3.50;99.90;;;;;;5133808;27;20042;-55
2022/02/18 02:58:24;;;;;;;10.93;2.90;;;3.50;99.90;;;;;;5132658;27;20074;-52
2022/02/18 03:00:49;;;;;;;12.73;2.65;;;3.50;99.90;;;;;;5121064;27;20089;-55
2022/02/18 03:03:15;;;;;;;12.15;3.13;;;3.50;99.90;;;;;;5113541;28;20019;-52
2022/02/18 03:05:41;;;;;;;16.15;2.65;;;3.50;99.90;;;;;;5113970;28;20020;-52
2022/02/18 03:08:06;;;;;;;10.93;3.15;;;3.50;99.90;;;;;;5113851;28;20023;-54
2022/02/18 03:10:32;;;;;;;9.98;1.88;;;3.50;99.90;;;;;;5123154;27;20099;-49
2022/02/18 03:12:57;;;;;;;9.05;2.90;;;3.40;99.90;;;;;;5127313;27;20032;-56
2022/02/18 03:15:23;;;;;;;11.98;2.53;;;3.40;99.90;;;;;;5113171;28;20020;-57
2022/02/18 03:17:48;;;;;;;16.90;3.20;;;3.40;99.90;;;;;;5113195;28;20038;-56
2022/02/18 03:20:14;;;;;;;8.10;2.33;;;3.40;99.90;;;;;;5120238;27;20027;-55
2022/02/18 03:22:40;;;;;;;13.20;3.58;;;3.30;99.90;;;;;;5133230;27;20023;-54
2022/02/18 03:25:07;;;;;;;16.30;3.75;;;3.30;99.90;;;;;;5133655;27;20167;-54
2022/02/18 03:27:32;;;;;;;9.77;2.50;;;3.30;99.90;;;;;;5133411;27;20023;-52
2022/02/18 03:29:58;;;;;;;9.75;2.67;;;3.30;99.90;;;;;;5128807;27;20026;-49
2022/02/18 03:32:24;;;;;;;11.80;2.88;;;3.30;99.90;;;;;;5114152;27;20023;-55
2022/02/18 03:34:49;;;;;;;11.73;2.33;;;3.30;99.90;;;;;;5112785;28;20019;-54
2022/02/18 03:37:15;;;;;;;17.27;3.50;;;3.30;99.90;;;;;;5113098;28;20211;-52
2022/02/18 03:39:41;;;;;;;12.43;2.92;;;3.30;99.90;;;;;;5114193;27;20016;-55
2022/02/18 03:42:06;;;;;;;10.23;2.85;;;3.20;99.90;;;;;;5114703;27;20509;-54
2022/02/18 03:44:32;;;;;;;10.05;2.38;;;3.20;99.90;;;;;;5133528;27;20024;-56
2022/02/18 03:46:58;;;;;;;12.43;2.58;;;3.20;99.90;;;;;;5133794;27;20072;-56
2022/02/18 03:49:24;;;;;;;15.27;3.40;;;3.20;99.90;;;;;;5133220;27;20659;-52
2022/02/18 03:51:49;;;;;;;11.00;2.35;;;3.20;99.90;;;;;;5112890;27;20024;-58
2022/02/18 03:54:15;;;;;;;14.95;3.08;;;3.20;99.90;;;;;;5077444;28;20666;-51
2022/02/18 03:56:41;;;;;;;15.55;2.80;;;3.20;99.90;;;;;;5112423;27;20039;-54
2022/02/18 03:59:06;;;;;;;18.85;3.13;;;3.20;99.90;;;;;;5112461;28;20020;-54
2022/02/18 04:01:32;;;;;;;11.52;2.38;;;3.10;99.90;;;;;;5129267;27;20049;-52
2022/02/18 04:03:57;;;;;;;12.38;2.10;;;3.10;99.90;;;;;;5132468;27;20055;-53
2022/02/18 04:06:23;;;;;;;9.88;2.85;;;3.10;99.90;;;;;;5132538;27;20106;-55
2022/02/18 04:08:48;;;;;;;12.38;2.80;;;3.10;99.90;;;;;;5132805;27;20274;-56
2022/02/18 04:11:14;;;;;;;13.07;2.50;;;3.10;99.90;;;;;;5114308;27;20542;-53
2022/02/18 04:13:39;;;;;;;9.60;2.92;;;3.10;99.90;;;;;;5112043;28;20023;-54
2022/02/18 04:16:05;;;;;;;10.20;2.80;;;3.10;99.90;;;;;;5112207;28;20031;-55
2022/02/18 04:18:30;;;;;;;14.55;3.10;;;3.10;99.90;;;;;;5112333;28;20036;-58
2022/02/18 04:20:56;;;;;;;14.02;3.10;;;3.10;99.90;;;;;;5127571;27;20206;-52
2022/02/18 04:23:22;;;;;;;8.32;2.10;;;3.10;99.90;;;;;;5121108;27;20020;-52
2022/02/18 04:25:47;;;;;;;12.43;2.58;;;3.10;99.90;;;;;;5111891;28;20436;-56
2022/02/18 04:28:14;;;;;;;11.38;2.83;;;3.10;99.90;;;;;;5111782;28;20100;-57
2022/02/18 04:30:41;;;;;;;12.65;2.63;;;3.10;99.90;;;;;;5123465;27;20062;-53
2022/02/18 04:33:06;;;;;;;10.52;2.22;;;3.10;99.90;;;;;;5131886;27;20084;-52
2022/02/18 04:35:32;;;;;;;14.38;2.67;;;3.00;99.90;;;;;;5130989;27;20138;-52
2022/02/18 04:37:58;;;;;;;15.80;2.88;;;3.10;99.90;;;;;;5109256;27;20058;-56
2022/02/18 04:40:23;;;;;;;8.70;3.03;;;3.10;99.90;;;;;;5123346;27;20027;-55
2022/02/18 04:42:49;;;;;;;13.48;3.30;;;3.00;99.90;;;;;;5131952;27;20054;-52
2022/02/18 04:45:14;;;;;;;11.73;2.92;;;3.10;99.90;;;;;;5125701;27;20031;-50
2022/02/18 04:47:41;;;;;;;12.50;2.30;;;3.10;99.90;;;;;;5111395;28;20023;-52
2022/02/18 04:50:07;;;;;;;10.73;2.65;;;3.10;99.90;;;;;;5123178;27;20122;-49
2022/02/18 04:52:33;;;;;;;12.77;3.72;;;3.10;99.90;;;;;;5131469;27;20031;-53
2022/02/18 04:55:00;;;;;;;16.60;2.90;;;3.10;99.90;;;;;;5131728;27;20026;-50
2022/02/18 04:57:26;;;;;;;14.55;2.97;;;3.10;99.90;;;;;;5132444;27;20406;-55
2022/02/18 04:59:52;;;;;;;9.50;2.58;;;3.10;99.90;;;;;;5122143;27;20027;-55
2022/02/18 05:02:18;;;;;;;17.73;3.15;;;3.10;99.90;;;;;;5092748;28;20027;-51
2022/02/18 05:04:43;;;;;;;8.82;2.47;;;3.10;99.90;;;;;;5111373;28;20019;-53
2022/02/18 05:07:09;;;;;;;15.48;2.50;;;3.10;99.90;;;;;;5092857;28;20028;-50
2022/02/18 05:09:35;;;;;;;12.25;3.45;;;3.10;99.90;;;;;;5118170;27;20031;-55
2022/02/18 05:12:01;;;;;;;10.82;2.83;;;3.10;99.90;;;;;;5131121;27;20034;-55
2022/02/18 05:14:27;;;;;;;6.25;2.55;;;3.10;99.90;;;;;;5131157;27;20034;-55
2022/02/18 05:16:52;;;;;;;5.53;2.15;;;3.10;99.90;;;;;;5112343;27;20048;-57
2022/02/18 05:19:18;;;;;;;12.55;1.98;;;3.10;99.90;;;;;;5126126;27;20060;-52
2022/02/18 05:21:43;;;;;;;11.75;2.40;;;3.10;99.90;;;;;;5110717;28;20028;-54
2022/02/18 05:24:09;;;;;;;13.73;2.08;;;3.10;99.90;;;;;;5110775;27;20032;-55
2022/02/18 05:26:35;;;;;;;8.07;2.25;;;3.10;99.90;;;;;;5110846;28;20399;-55
2022/02/18 05:29:02;;;;;;;10.55;2.55;;;3.10;99.90;;;;;;5112539;28;20027;-55
2022/02/18 05:31:27;;;;;;;11.80;2.50;;;3.10;99.90;;;;;;5131132;27;20475;-52
2022/02/18 05:33:53;;;;;;;13.63;2.30;;;3.10;99.90;;;;;;5130521;27;20068;-57
2022/02/18 05:36:18;;;;;;;7.28;2.30;;;3.20;99.90;;;;;;5131244;27;20031;-52
2022/02/18 05:38:46;;;;;;;19.30;3.10;;;3.10;99.90;;;;;;5131322;27;20023;-53
2022/02/18 05:41:15;;;;;;;7.07;2.15;;;3.10;99.90;;;;;;5129890;27;20034;-53
2022/02/18 05:43:40;;;;;;;12.02;2.53;;;3.10;99.90;;;;;;5130442;27;20042;-51
2022/02/18 05:46:06;;;;;;;14.05;2.88;;;3.10;99.90;;;;;;5112668;27;20419;-54
2022/02/18 05:48:32;;;;;;;12.25;2.40;;;3.10;99.90;;;;;;5130944;27;20497;-53
2022/02/18 05:50:58;;;;;;;9.50;2.80;;;3.10;99.90;;;;;;5094692;28;20058;-50
2022/02/18 05:53:24;;;;;;;8.75;1.50;;;3.10;99.90;;;;;;5109998;28;20031;-55
2022/02/18 05:55:49;;;;;;;8.48;2.05;;;3.10;99.90;;;;;;5110613;27;20034;-54
2022/02/18 05:58:15;;;;;;;9.63;2.42;;;3.10;99.90;;;;;;5127578;27;20031;-55
2022/02/18 06:00:40;;;;;;;10.93;3.08;;;3.10;99.90;;;;;;5112265;27;20034;-53
2022/02/18 06:03:06;;;;;;;10.80;3.08;;;3.20;99.90;;;;;;5130168;27;20073;-52
2022/02/18 06:05:32;;;;;;;8.90;2.38;;;3.20;99.90;;;;;;5130527;27;20015;-56
2022/02/18 06:07:57;;;;;;;14.70;2.30;;;3.20;99.90;;;;;;5121805;27;20500;-51
2022/02/18 06:10:23;;;;;;;10.65;2.20;;;3.20;99.90;;;;;;5109956;27;20023;-55
2022/02/18 06:12:49;;;;;;;9.75;2.40;;;3.20;99.90;;;;;;5110067;28;20092;-55
2022/02/18 06:15:15;;;;;;;11.85;3.25;;;3.20;99.90;;;;;;5110273;28;20464;-54
2022/02/18 06:17:40;;;;;;;9.35;2.92;;;3.20;99.90;;;;;;5116017;27;20035;-56
2022/02/18 06:20:10;;;;;;;13.70;2.83;;;3.20;99.90;;;;;;5125458;27;20035;-51
2022/02/18 06:22:36;;;;;;;5.95;2.03;;;3.20;99.90;;;;;;5104963;28;20434;-52
2022/02/18 06:25:09;;;;;;;8.27;2.50;;;3.20;99.90;;;;;;5109969;28;20096;-52
2022/02/18 06:27:34;;;;;;;12.52;2.72;;;3.20;99.90;;;;;;5109639;28;20534;-57
2022/02/18 06:30:00;;;;;;;10.07;2.17;;;3.20;99.90;;;;;;5118126;28;20098;-51
2022/02/18 06:32:26;;;;;;;9.70;2.92;;;3.20;99.90;;;;;;5124905;28;20039;-52
2022/02/18 06:34:52;;;;;;;10.32;2.17;;;3.20;99.90;;;;;;5127595;28;20335;-54
2022/02/18 06:37:18;;;;;;;13.02;2.75;;;3.20;99.90;;;;;;5129762;28;20031;-51
2022/02/18 06:39:44;;;;;;;10.07;2.90;;;3.20;99.90;;;;;;5130316;28;20023;-53
2022/02/18 06:42:10;;;;;;;13.48;2.80;;;3.20;99.90;;;;;;5130116;28;20025;-56
2022/02/18 06:44:36;;;;;;;8.00;2.58;;;3.20;99.90;;;;;;5130039;27;20514;-52
2022/02/18 06:47:02;;;;;;;13.90;2.38;;;3.20;99.90;;;;;;5130367;28;20099;-55
2022/02/18 06:49:28;;;;;;;13.32;3.15;;;3.20;99.90;;;;;;5130141;28;20083;-53
2022/02/18 06:51:56;;;;;;;9.15;3.42;;;3.20;99.90;;;;;;5130305;28;20038;-57
2022/02/18 06:54:25;;;;;;;13.68;2.75;;;3.20;99.90;;;;;;5130241;28;20027;-52
2022/02/18 06:56:52;;;;;;;16.00;3.03;;;3.20;99.90;;;;;;5129947;27;20015;-51
2022/02/18 06:59:18;;;;;;;13.50;3.65;;;3.30;99.90;;;;;;5130080;28;20035;-53
2022/02/18 07:01:44;;;;;;;7.88;2.67;;;3.30;99.90;;;;;;5111741;28;20046;-53
2022/02/18 07:04:10;;;;;;;8.52;2.72;;;3.30;99.90;;;;;;5111229;28;20471;-55
2022/02/18 07:06:35;;;;;;;11.27;3.80;;;3.30;99.90;;;;;;5129993;27;20015;-51
2022/02/18 07:09:01;;;;;;;9.70;2.95;;;3.40;99.90;;;;;;5130218;28;20027;-53
2022/02/18 07:11:27;;;;;;;14.68;3.78;;;3.30;99.90;;;;;;5129833;28;20023;-53
2022/02/18 07:13:53;;;;;;;11.73;2.65;;;3.40;99.90;;;;;;5130119;28;20536;-55
2022/02/18 07:16:18;;;;;;;12.27;3.33;;;3.40;99.90;;;;;;5129868;27;20031;-53
2022/02/18 07:18:44;;;;;;;8.63;3.80;;;3.40;99.90;;;;;;5130069;28;20642;-51
2022/02/18 07:21:12;;;;;;;10.52;3.60;;;3.40;99.90;;;;;;5111050;28;20028;-54
2022/02/18 07:23:37;;;;;;;10.30;3.33;;;3.40;99.90;;;;;;5109659;28;20031;-54
2022/02/18 07:26:03;;;;;;;19.17;3.67;;;3.50;99.90;;;;;;5109411;28;20376;-54
2022/02/18 07:28:28;;;;;;;15.95;4.30;;;3.50;99.90;;;;;;5109561;28;20034;-53
2022/02/18 07:30:57;;;;;;;8.95;3.45;;;3.50;99.90;;;;;;5109751;28;20035;-51
2022/02/18 07:33:22;;;;;;;10.25;3.42;;;3.60;99.90;;;;;;5118793;28;20612;-54
2022/02/18 07:35:48;;;;;;;11.88;3.50;;;3.60;99.90;;;;;;5129599;28;20114;-55
2022/02/18 07:38:14;;;;;;;13.60;3.78;;;3.70;99.90;;;;;;5125605;28;20020;-56
2022/02/18 07:40:41;;;;;;;10.13;4.03;;;3.70;99.90;;;;;;5127071;27;20144;-56
2022/02/18 07:43:07;;;;;;;10.63;3.88;;;3.70;99.90;;;;;;5132032;27;20438;-56
2022/02/18 07:45:32;;;;;;;10.80;3.97;;;3.80;99.90;;;;;;5120556;27;20061;-56
2022/02/18 07:47:58;;;;;;;17.80;4.50;;;3.80;99.90;;;;;;5112685;28;20407;-56
2022/02/18 07:50:24;;;;;;;13.88;4.13;;;3.90;99.90;;;;;;5123596;27;20034;-53
2022/02/18 07:52:50;;;;;;;11.93;4.35;;;3.90;99.90;;;;;;5132795;27;20088;-54
2022/02/18 07:55:16;;;;;;;11.18;3.88;;;3.90;99.90;;;;;;5122058;27;20027;-52
2022/02/18 07:57:42;;;;;;;11.75;3.72;;;3.90;99.90;;;;;;5094140;28;20061;-50
2022/02/18 08:00:09;;;;;;;12.63;3.92;;;4.00;99.90;;;;;;5121966;27;20104;-54
2022/02/18 08:02:35;;;;;;;13.70;4.28;;;4.00;99.90;;;;;;5127726;27;20027;-51
2022/02/18 08:05:02;;;;;;;7.72;3.78;;;4.10;99.90;;;;;;5132326;27;20057;-56
2022/02/18 08:07:28;;;;;;;15.68;3.97;;;4.00;99.90;;;;;;5133180;27;20034;-57
2022/02/18 08:09:53;;;;;;;16.75;5.43;;;4.10;99.90;;;;;;5131033;27;20421;-54
2022/02/18 08:12:19;;;;;;;11.13;3.78;;;4.10;99.90;;;;;;5132876;27;20479;-52
2022/02/18 08:14:44;;;;;;;12.30;4.68;;;4.10;99.90;;;;;;5125921;27;20689;-55
2022/02/18 08:17:10;;;;;;;13.57;4.65;;;4.10;99.90;;;;;;5112104;28;20039;-56
2022/02/18 08:19:35;;;;;;;15.27;4.35;;;4.20;99.90;;;;;;5115788;27;20079;-56
2022/02/18 08:22:03;;;;;;;10.68;4.00;;;4.20;99.90;;;;;;5111842;28;20536;-56
2022/02/18 08:24:30;;;;;;;10.95;4.13;;;4.20;99.90;;;;;;5115090;27;20062;-54
2022/02/18 08:26:57;;;;;;;11.05;3.80;;;4.30;99.90;;;;;;5128664;27;20031;-54
2022/02/18 08:29:23;;;;;;;10.77;3.90;;;4.20;99.90;;;;;;5131299;27;20042;-55
2022/02/18 08:31:50;;;;;;;9.85;4.32;;;4.30;99.90;;;;;;5131781;27;20030;-58
2022/02/18 08:34:16;;;;;;;11.82;3.30;;;4.30;99.90;;;;;;5128752;27;20039;-56
2022/02/18 08:36:43;;;;;;;15.88;4.47;;;4.30;99.90;;;;;;5129199;27;20498;-53
2022/02/18 08:39:09;;;;;;;11.00;3.80;;;4.30;99.90;;;;;;5131240;27;20042;-51
2022/02/18 08:41:36;;;;;;;12.30;4.50;;;4.40;99.90;;;;;;5119968;27;20028;-54
2022/02/18 08:44:02;;;;;;;10.15;3.55;;;4.40;99.90;;;;;;5110858;28;20031;-54
2022/02/18 08:46:29;;;;;;;12.77;4.03;;;4.40;99.90;;;;;;5130362;27;20028;-55
2022/02/18 08:48:54;;;;;;;12.98;3.85;;;4.50;99.90;;;;;;5131484;27;20107;-53
2022/02/18 08:51:20;;;;;;;11.48;4.28;;;4.50;99.90;;;;;;5109602;28;20059;-54
2022/02/18 08:53:45;;;;;;;19.40;3.45;;;4.50;99.90;;;;;;5114410;27;20031;-55
2022/02/18 08:56:14;;;;;;;7.88;3.33;;;4.50;99.90;;;;;;5131010;27;20035;-56
2022/02/18 08:58:40;;;;;;;14.60;4.05;;;4.60;99.90;;;;;;5127079;27;20039;-49
2022/02/18 09:01:05;;;;;;;10.20;3.90;;;4.60;99.90;;;;;;5110679;28;20032;-54
2022/02/18 09:03:31;;;;;;;8.93;4.30;;;4.60;99.90;;;;;;5120349;27;20087;-52
2022/02/18 09:05:57;;;;;;;12.48;3.78;;;4.70;99.90;;;;;;5113912;27;20031;-50
2022/02/18 09:08:24;;;;;;;13.55;3.90;;;4.70;99.90;;;;;;5118755;27;20054;-51
2022/02/18 09:10:52;;;;;;;7.63;3.17;;;4.70;99.90;;;;;;5112513;27;20518;-50
2022/02/18 09:13:20;;;;;;;10.80;4.32;;;4.80;99.90;;;;;;5113076;27;20054;-56
2022/02/18 09:15:46;;;;;;;14.15;5.18;;;4.80;99.90;;;;;;5110884;27;20028;-52
2022/02/18 09:18:15;;;;;;;17.02;4.82;;;4.80;99.90;;;;;;5129410;27;20031;-55
2022/02/18 09:20:41;;;;;;;14.23;5.10;;;4.90;99.90;;;;;;5129070;27;20038;-54
2022/02/18 09:23:07;;;;;;;13.05;6.47;;;4.90;99.90;;;;;;5130963;27;20035;-52
2022/02/18 09:25:32;;;;;;;13.25;5.07;;;4.90;99.90;;;;;;5128596;27;20027;-54
2022/02/18 09:28:00;;;;;;;17.15;5.18;;;5.00;99.90;;;;;;5130866;27;20062;-56
2022/02/18 09:30:25;;;;;;;13.73;5.25;;;5.00;99.90;;;;;;5130447;27;20023;-50
2022/02/18 09:32:52;;;;;;;8.65;5.30;;;5.00;99.90;;;;;;5130819;27;20039;-56
2022/02/18 09:35:18;;;;;;;16.95;4.93;;;5.00;99.90;;;;;;5111725;27;20027;-57
2022/02/18 09:37:43;;;;;;;12.45;5.82;;;5.00;99.90;;;;;;5130641;27;20407;-54
2022/02/18 09:40:10;;;;;;;12.52;5.35;;;5.00;99.90;;;;;;5121726;22;20037;-50
2022/02/18 09:42:40;;;;;;;14.18;4.90;;;5.00;99.90;;;;;;5068631;28;20164;-53
2022/02/18 09:45:06;;;;;;;14.15;4.43;;;5.00;99.90;;;;;;5069115;28;20036;-52
2022/02/18 09:47:32;;;;;;;8.82;4.13;;;5.00;99.90;;;;;;5068619;28;20033;-52
2022/02/18 09:49:58;;;;;;;14.18;4.88;;;5.00;99.90;;;;;;5068805;28;20618;-52
2022/02/18 09:52:24;;;;;;;8.05;3.35;;;5.00;99.90;;;;;;5068036;28;20052;-51
2022/02/18 09:54:50;;;;;;;7.10;3.70;;;5.10;99.90;;;;;;5066825;28;20078;-51
2022/02/18 09:57:16;;;;;;;9.55;3.83;;;5.00;99.90;;;;;;5068990;28;20028;-53
2022/02/18 09:59:43;;;;;;;9.77;3.72;;;5.00;99.90;;;;;;5067484;28;20041;-51
2022/02/18 10:02:12;;;;;;;13.35;4.65;;;5.10;99.90;;;;;;5068518;28;20012;-53
2022/02/18 10:04:37;;;;;;;9.13;4.35;;;5.10;99.90;;;;;;5059741;28;20467;-51
2022/02/18 10:07:05;;;;;;;5.68;3.92;;;5.10;99.90;;;;;;5048485;28;20044;-52
2022/02/18 10:09:37;;;;;;;11.75;4.28;;;5.10;99.90;;;;;;5048827;28;20029;-52
2022/02/18 10:12:03;;;;;;;9.77;4.50;;;5.10;99.90;;;;;;5048581;28;20029;-51
2022/02/18 10:14:55;;;;;;;10.85;3.80;;;5.00;99.90;;;;;;5063086;28;20047;-55
2022/02/18 10:17:21;;;;;;;10.00;4.70;;;5.10;99.90;;;;;;5066014;28;20048;-51
2022/02/18 10:19:52;;;;;;;7.97;3.95;;;5.10;99.90;;;;;;5069159;28;20252;-51
2022/02/18 10:22:25;;;;;;;11.13;4.55;;;5.10;99.90;;;;;;5068428;28;20024;-52
2022/02/18 10:24:52;;;;;;;7.20;3.90;;;5.10;99.90;;;;;;5068435;28;20092;-55
2022/02/18 10:27:40;;;;;;;8.27;4.18;;;5.10;99.90;;;;;;5066166;28;20098;-53
2022/02/18 10:30:06;;;;;;;11.85;4.68;;;5.10;99.90;;;;;;5068697;28;20021;-51
2022/02/18 10:32:39;;;;;;;6.57;3.58;;;5.10;99.90;;;;;;5068152;28;20033;-50
2022/02/18 10:35:05;;;;;;;12.57;4.85;;;5.10;99.90;;;;;;5068645;28;20024;-51
2022/02/18 10:37:34;;;;;;;10.02;4.35;;;5.10;99.90;;;;;;5060887;28;20433;-54
2022/02/18 10:40:15;;;;;;;14.38;4.63;;;5.10;99.90;;;;;;5064768;28;20032;-54
2022/02/18 10:42:42;;;;;;;13.20;4.68;;;5.10;99.90;;;;;;5059647;28;20488;-53
2022/02/18 10:45:08;;;;;;;13.77;4.32;;;5.20;99.90;;;;;;5068093;28;20040;-52
2022/02/18 10:47:34;;;;;;;16.67;5.63;;;5.20;99.90;;;;;;5067770;28;20021;-52
2022/02/18 10:50:01;;;;;;;10.50;4.80;;;5.20;99.90;;;;;;5066703;28;20027;-52
2022/02/18 10:52:26;;;;;;;13.30;4.90;;;5.20;99.90;;;;;;5066664;28;20032;-51
2022/02/18 10:54:54;;;;;;;6.85;3.83;;;5.20;99.90;;;;;;5058668;28;20032;-52
2022/02/18 10:57:21;;;;;;;9.77;4.38;;;5.30;99.90;;;;;;5048436;28;20127;-50
2022/02/18 10:59:48;;;;;;;15.65;5.07;;;5.30;99.90;;;;;;5056262;28;20025;-51
2022/02/18 11:02:14;;;;;;;7.32;3.35;;;5.30;99.90;;;;;;5058059;28;20028;-51
2022/02/18 11:04:41;;;;;;;12.38;4.72;;;5.30;99.90;;;;;;5067953;28;20066;-52
2022/02/18 11:07:14;;;;;;;9.02;3.70;;;5.30;99.90;;;;;;5068355;28;20031;-53
2022/02/18 11:09:41;;;;;;;8.40;3.85;;;5.30;99.90;;;;;;5064335;28;20028;-50
2022/02/18 11:12:11;;;;;;;9.27;3.42;;;5.30;99.90;;;;;;5055953;28;20388;-50
2022/02/18 11:14:45;;;;;;;13.20;4.25;;;5.30;99.90;;;;;;5069189;28;20032;-52
2022/02/18 11:17:13;;;;;;;10.48;4.15;;;5.30;99.90;;;;;;5071067;28;20033;-51
2022/02/18 11:19:42;;;;;;;7.55;4.05;;;5.30;99.90;;;;;;5070770;28;20130;-50
2022/02/18 11:22:08;;;;;;;8.80;4.32;;;5.30;99.90;;;;;;5078703;28;20066;-50
2022/02/18 11:24:34;;;;;;;9.15;4.32;;;5.30;99.90;;;;;;5051807;28;20317;-51
2022/02/18 11:27:02;;;;;;;11.23;3.83;;;5.30;99.90;;;;;;5061962;28;20107;-51
2022/02/18 11:29:28;;;;;;;17.33;5.07;;;5.30;99.90;;;;;;5071983;28;20047;-52
2022/02/18 11:32:03;;;;;;;12.48;4.03;;;5.30;99.90;;;;;;5070668;28;20033;-52
2022/02/18 11:35:00;;;;;;;10.73;4.13;;;5.30;99.90;;;;;;5071786;28;20047;-51
2022/02/18 11:37:38;;;;;;;7.78;4.30;;;5.30;99.90;;;;;;5069824;28;20523;-53
2022/02/18 11:40:28;;;;;;;15.80;4.65;;;5.30;99.90;;;;;;5071274;28;20488;-53
2022/02/18 11:43:30;;;;;;;11.57;5.45;;;5.30;99.90;;;;;;5031528;28;20109;-52
2022/02/18 11:46:05;;;;;;;14.90;5.55;;;5.30;99.90;;;;;;5053978;28;20520;-48
2022/02/18 11:48:45;;;;;;;12.63;4.85;;;5.30;99.90;;;;;;5052997;28;20523;-52
2022/02/18 11:51:18;;;;;;;12.85;5.75;;;5.30;99.90;;;;;;5066722;28;20136;-50
2022/02/18 11:53:59;;;;;;;13.02;5.22;;;5.30;99.90;;;;;;5070729;28;20036;-50
2022/02/18 11:56:38;;;;;;;14.90;6.60;;;5.30;99.90;;;;;;5070642;28;20111;-49
2022/02/18 11:59:04;;;;;;;14.65;6.90;;;5.30;99.90;;;;;;5049880;28;20041;-49
2022/02/18 12:02:09;;;;;;;16.55;6.75;;;5.20;99.90;;;;;;5067360;28;20032;-50
2022/02/18 12:04:36;;;;;;;13.70;6.40;;;5.20;99.90;;;;;;5069965;28;20038;-50
2022/02/18 12:07:15;;;;;;;11.85;7.00;;;5.30;99.90;;;;;;5059931;28;20030;-51
2022/02/18 12:09:49;;;;;;;16.27;6.93;;;5.30;99.90;;;;;;5070779;28;20025;-50
2022/02/18 12:12:22;;;;;;;10.60;7.05;;;5.30;99.90;;;;;;5070750;28;20082;-50
2022/02/18 12:14:48;;;;;;;13.73;7.18;;;5.30;99.90;;;;;;5086144;28;20043;-49
2022/02/18 12:17:14;;;;;;;14.65;7.97;;;5.30;99.90;;;;;;5070825;28;20056;-51
2022/02/18 12:19:39;;;;;;;18.55;7.80;;;5.30;99.90;;;;;;5070043;28;20078;-48
2022/02/18 12:22:05;;;;;;;16.27;7.13;;;5.30;99.90;;;;;;5053215;28;20437;-49
2022/02/18 12:24:40;;;;;;;15.93;7.78;;;5.30;99.90;;;;;;5051088;28;20369;-51
2022/02/18 12:27:26;;;;;;;17.92;7.70;;;5.30;99.90;;;;;;5051084;28;20108;-50
2022/02/18 12:29:52;;;;;;;13.70;7.13;;;5.40;99.90;;;;;;5031176;28;20029;-49
2022/02/18 12:32:19;;;;;;;12.32;6.38;;;5.40;99.90;;;;;;5031342;28;20112;-51
2022/02/18 12:34:57;;;;;;;12.80;5.75;;;5.40;99.90;;;;;;5050902;28;20032;-49
2022/02/18 12:37:23;;;;;;;9.57;5.50;;;5.40;99.90;;;;;;5059887;28;20037;-51
2022/02/18 12:39:54;;;;;;;7.15;4.53;;;5.50;99.90;;;;;;5070506;28;20059;-50
2022/02/18 12:42:21;;;;;;;10.52;4.43;;;5.50;99.90;;;;;;5064723;28;20496;-50
2022/02/18 12:44:49;;;;;;;12.10;5.05;;;5.50;99.90;;;;;;5053321;28;20029;-52
2022/02/18 12:47:22;;;;;;;11.35;4.55;;;5.60;99.90;;;;;;5052284;28;20075;-49